Time;durP1;ratioP1;P1;durP2;ratioP2;P2;SDS_P1;SDS_P2;PMS_P1;PMS_P2;Temp;Humidity;BMP_temperature;BMP_pressure;BME280_temperature;BME280_humidity;BME280_pressure;Samples;Min_cycle;Max_cycle;Signal;HPM_P1;HPM_P2
2024/03/31 00:00:30;;;;;;;;;3.33;3.33;;;;;22.77;39.92;99342.59;4919329;28;45473;-81
2024/03/31 00:02:56;;;;;;;;;3.00;2.00;;;;;22.66;40.30;99330.84;4919234;28;47101;-80
2024/03/31 00:05:21;;;;;;;;;3.00;3.00;;;;;22.77;39.87;99343.38;4919767;28;45540;-80
2024/03/31 00:07:46;;;;;;;;;1.67;1.67;;;;;22.72;40.39;99330.78;4919159;28;45492;-83
2024/03/31 00:10:12;;;;;;;;;3.00;3.00;;;;;22.66;39.89;99323.69;4919640;28;45344;-83
2024/03/31 00:12:37;;;;;;;;;3.00;3.00;;;;;22.79;40.15;99335.22;4918246;28;45384;-84
2024/03/31 00:15:02;;;;;;;;;3.00;3.00;;;;;22.78;39.93;99334.41;4919031;28;45533;-82
2024/03/31 00:17:28;;;;;;;;;3.00;1.67;;;;;22.78;40.24;99326.44;4918705;28;45438;-81
2024/03/31 00:19:53;;;;;;;;;3.00;3.00;;;;;22.79;40.30;99324.59;4918582;28;46416;-83
2024/03/31 00:22:18;;;;;;;;;4.33;3.00;;;;;22.80;40.20;99318.25;4919464;28;46879;-79
2024/03/31 00:24:44;;;;;;;;;2.33;2.33;;;;;22.80;40.32;99315.59;4917304;28;45389;-80
2024/03/31 00:27:10;;;;;;;;;2.00;2.00;;;;;22.68;39.83;99303.06;4916533;28;45478;-80
2024/03/31 00:29:36;;;;;;;;;2.67;2.67;;;;;22.73;40.40;99307.75;4918728;28;45374;-79
2024/03/31 00:32:02;;;;;;;;;2.67;2.67;;;;;22.71;40.09;99307.16;4918273;28;45439;-84
2024/03/31 00:34:27;;;;;;;;;3.33;2.67;;;;;22.79;39.82;99314.81;4918701;28;45288;-84
2024/03/31 00:36:53;;;;;;;;;2.00;2.00;;;;;22.79;40.10;99309.50;4918821;28;45316;-79
2024/03/31 00:39:18;;;;;;;;;3.00;3.00;;;;;22.78;40.33;99305.22;4918326;28;45584;-80
2024/03/31 00:41:43;;;;;;;;;3.00;3.00;;;;;22.76;40.11;99304.66;4916352;28;47071;-80
2024/03/31 00:44:09;;;;;;;;;2.00;2.00;;;;;22.78;40.56;99297.28;4918467;28;45456;-80
2024/03/31 00:46:35;;;;;;;;;3.00;3.00;;;;;22.73;40.26;99287.34;4918277;28;45439;-81
2024/03/31 00:49:00;;;;;;;;;2.67;2.00;;;;;22.79;39.90;99290.13;4917959;28;45406;-80
2024/03/31 00:51:26;;;;;;;;;2.00;2.00;;;;;22.78;40.25;99281.38;4918070;28;46004;-81
2024/03/31 00:53:51;;;;;;;;;2.67;2.00;;;;;22.78;40.10;99286.66;4917820;28;45441;-84
2024/03/31 00:56:17;;;;;;;;;4.00;2.00;;;;;22.77;40.23;99279.72;4918871;28;45370;-88
2024/03/31 00:58:42;;;;;;;;;2.67;2.00;;;;;22.75;40.08;99284.47;4918500;28;45383;-81
2024/03/31 01:01:11;;;;;;;;;1.33;1.33;;;;;22.73;39.95;99268.78;4918368;28;45507;-86
2024/03/31 01:03:37;;;;;;;;;2.00;2.00;;;;;22.78;39.99;99275.25;4918705;28;45408;-83
2024/03/31 01:06:10;;;;;;;;;2.67;2.00;;;;;22.77;40.19;99279.72;4918250;28;45475;-83
2024/03/31 01:08:35;;;;;;;;;2.33;2.33;;;;;22.78;40.10;99280.56;4917880;28;45466;-81
2024/03/31 01:11:01;;;;;;;;;2.00;2.00;;;;;22.78;40.37;99286.66;4916492;28;45998;-81
2024/03/31 01:13:26;;;;;;;;;1.00;1.00;;;;;22.74;40.67;99270.38;4917996;28;45378;-83
2024/03/31 01:15:52;;;;;;;;;1.33;1.33;;;;;22.70;40.37;99268.41;4917888;28;45752;-82
2024/03/31 01:18:17;;;;;;;;;4.67;2.00;;;;;22.69;39.89;99264.91;4916622;28;45539;-84
2024/03/31 01:20:42;;;;;;;;;2.00;2.00;;;;;22.77;39.88;99276.31;4917781;28;46130;-84
2024/03/31 01:23:10;;;;;;;;;2.67;2.67;;;;;22.51;40.58;99244.53;4917719;28;45276;-84
2024/03/31 01:25:36;;;;;;;;;2.67;2.67;;;;;22.76;40.21;99282.63;4917485;28;45414;-80
2024/03/31 01:28:01;;;;;;;;;1.00;1.00;;;;;22.65;40.15;99262.94;4917697;28;45310;-81
2024/03/31 01:30:27;;;;;;;;;2.00;2.00;;;;;22.74;40.63;99281.00;4917656;28;46963;-81
2024/03/31 01:32:52;;;;;;;;;1.67;1.67;;;;;22.66;40.15;99267.22;4918170;28;45357;-85
2024/03/31 01:35:18;;;;;;;;;2.00;2.00;;;;;22.61;40.45;99257.28;4919442;28;45394;-86
2024/03/31 01:37:48;;;;;;;;;3.00;3.00;;;;;22.74;40.59;99278.34;4921980;28;45506;-87
2024/03/31 01:40:14;;;;;;;;;3.00;3.00;;;;;22.50;40.11;99238.44;4920111;28;47393;-73
2024/03/31 01:42:39;;;;;;;;;1.00;1.00;;;;;22.70;39.39;99258.63;4920266;28;45400;-72
2024/03/31 01:45:05;;;;;;;;;3.33;2.00;;;;;22.71;40.27;99251.47;4920477;28;45474;-71
2024/03/31 01:47:30;;;;;;;;;4.00;2.00;;;;;22.67;39.93;99259.03;4920905;28;45509;-71
2024/03/31 01:49:55;;;;;;;;;4.00;2.00;;;;;22.65;40.29;99258.44;4920968;28;46128;-71
2024/03/31 01:52:21;;;;;;;;;1.67;1.67;;;;;22.61;39.65;99250.13;4920931;28;45341;-71
2024/03/31 01:54:46;;;;;;;;;2.00;2.00;;;;;22.57;40.29;99243.66;4920494;28;45499;-71
2024/03/31 01:57:11;;;;;;;;;2.00;1.00;;;;;22.57;40.15;99242.84;4920965;28;45352;-71
2024/03/31 01:59:37;;;;;;;;;2.00;2.00;;;;;22.56;40.01;99247.34;4909600;28;45368;-71
2024/03/31 02:02:02;;;;;;;;;2.00;2.00;;;;;22.53;39.66;99242.50;4906826;28;45390;-71
2024/03/31 02:04:27;;;;;;;;;5.00;1.67;;;;;22.52;39.99;99249.63;4920892;28;45335;-71
2024/03/31 02:06:53;;;;;;;;;1.33;1.33;;;;;22.51;40.10;99236.59;4906844;28;45323;-71
2024/03/31 02:09:18;;;;;;;;;2.00;1.00;;;;;22.43;39.59;99235.06;4901347;28;47164;-71
2024/03/31 02:11:44;;;;;;;;;1.00;1.00;;;;;22.48;39.78;99243.16;4901612;28;45312;-71
2024/03/31 02:14:09;;;;;;;;;1.33;1.33;;;;;22.46;40.12;99247.03;4901858;28;45457;-71
2024/03/31 02:16:34;;;;;;;;;2.67;1.67;;;;;22.46;39.67;99250.50;4901492;28;45230;-71
2024/03/31 02:19:00;;;;;;;;;3.33;2.00;;;;;22.46;40.10;99252.34;4901493;28;45350;-71
2024/03/31 02:21:25;;;;;;;;;1.00;1.00;;;;;22.44;39.69;99244.63;4913977;28;45397;-71
2024/03/31 02:23:50;;;;;;;;;1.33;1.33;;;;;22.45;39.72;99245.44;4920258;28;45326;-71
2024/03/31 02:26:16;;;;;;;;;2.67;2.00;;;;;22.43;40.13;99244.88;4920649;28;45392;-71
2024/03/31 02:28:41;;;;;;;;;1.00;1.00;;;;;22.43;40.21;99240.34;4919067;28;46083;-71
2024/03/31 02:31:06;;;;;;;;;2.33;2.00;;;;;22.42;40.02;99235.28;4920495;28;45240;-71
2024/03/31 02:33:32;;;;;;;;;1.33;1.33;;;;;22.42;40.01;99233.44;4920557;28;45299;-71
2024/03/31 02:35:57;;;;;;;;;1.00;1.00;;;;;22.40;40.02;99230.22;4920451;28;45293;-70
2024/03/31 02:38:22;;;;;;;;;2.00;2.00;;;;;22.39;40.17;99232.06;4919893;28;45298;-71
2024/03/31 02:40:48;;;;;;;;;2.00;1.00;;;;;22.39;39.34;99245.31;4920437;28;45380;-71
2024/03/31 02:43:13;;;;;;;;;0.00;0.00;;;;;22.38;39.95;99235.72;4920301;28;45309;-71
2024/03/31 02:45:38;;;;;;;;;2.33;1.33;;;;;22.40;39.56;99232.88;4920193;28;45327;-71
2024/03/31 02:48:04;;;;;;;;;1.00;1.00;;;;;22.39;39.83;99218.00;4919492;28;45410;-71
2024/03/31 02:50:30;;;;;;;;;2.67;2.67;;;;;22.40;39.98;99220.41;4920139;28;45389;-71
2024/03/31 02:52:56;;;;;;;;;1.00;1.00;;;;;22.33;39.57;99205.66;4919934;28;45409;-71
2024/03/31 02:55:22;;;;;;;;;0.00;0.00;;;;;22.40;39.60;99211.66;4920040;28;45440;-70
2024/03/31 02:57:47;;;;;;;;;1.33;1.33;;;;;22.27;39.79;99202.84;4919804;28;47000;-71
2024/03/31 03:00:13;;;;;;;;;3.00;2.00;;;;;22.40;39.45;99216.97;4920022;28;45419;-71
2024/03/31 03:02:39;;;;;;;;;1.00;1.00;;;;;22.38;39.94;99217.19;4934816;28;45379;-71
2024/03/31 03:05:05;;;;;;;;;1.00;1.00;;;;;22.37;39.58;99218.22;4920003;28;45419;-71
2024/03/31 03:07:30;;;;;;;;;1.00;1.00;;;;;22.38;39.60;99208.41;4919524;28;46761;-71
2024/03/31 03:09:57;;;;;;;;;2.00;2.00;;;;;22.37;39.73;99206.81;4919697;28;45383;-71
2024/03/31 03:12:22;;;;;;;;;1.67;1.33;;;;;22.36;39.96;99208.66;4919864;28;45494;-71
2024/03/31 03:14:52;;;;;;;;;1.33;1.33;;;;;22.33;39.88;99211.72;4918572;28;45403;-70
2024/03/31 03:17:17;;;;;;;;;1.50;1.50;;;;;22.35;39.62;99208.88;4919594;28;45190;-71
2024/03/31 03:19:42;;;;;;;;;2.00;2.00;;;;;22.35;39.48;99209.66;4934231;28;45698;-71
2024/03/31 03:22:08;;;;;;;;;1.00;1.00;;;;;22.34;39.49;99197.47;4919328;28;45471;-71
2024/03/31 03:24:33;;;;;;;;;0.67;0.67;;;;;22.34;39.32;99192.16;4919580;28;45390;-71
2024/03/31 03:26:58;;;;;;;;;1.00;1.00;;;;;22.28;39.49;99185.09;4919544;28;46000;-71
2024/03/31 03:29:23;;;;;;;;;1.00;1.00;;;;;22.32;40.02;99191.59;4919555;28;45466;-71
2024/03/31 03:31:49;;;;;;;;;1.00;1.00;;;;;22.33;39.82;99189.75;4919648;28;45269;-71
2024/03/31 03:34:14;;;;;;;;;1.00;1.00;;;;;22.33;39.41;99192.41;4919756;28;45416;-71
2024/03/31 03:36:39;;;;;;;;;0.00;0.00;;;;;22.32;39.31;99183.63;4919101;28;46095;-71
2024/03/31 03:39:05;;;;;;;;;2.00;0.67;;;;;22.33;39.36;99187.09;4919491;28;45271;-71
2024/03/31 03:41:32;;;;;;;;;1.00;1.00;;;;;22.33;39.37;99184.44;4919553;28;45335;-70
2024/03/31 03:43:57;;;;;;;;;1.00;1.00;;;;;22.33;39.50;99182.59;4919491;28;45402;-71
2024/03/31 03:46:23;;;;;;;;;2.00;2.00;;;;;22.33;39.65;99182.59;4919151;28;45326;-71
2024/03/31 03:48:48;;;;;;;;;1.00;1.00;;;;;22.33;39.71;99173.84;4919172;28;45375;-71
2024/03/31 03:51:13;;;;;;;;;2.00;1.00;;;;;22.32;39.97;99175.69;4918985;28;45471;-70
2024/03/31 03:53:38;;;;;;;;;1.00;1.00;;;;;22.31;39.44;99168.75;4919381;28;45438;-71
2024/03/31 03:56:04;;;;;;;;;1.00;1.00;;;;;22.32;39.72;99164.28;4918916;28;45347;-71
2024/03/31 03:58:29;;;;;;;;;1.00;1.00;;;;;22.32;39.80;99162.44;4918897;28;45387;-71
2024/03/31 04:00:56;;;;;;;;;1.00;1.00;;;;;22.31;39.64;99160.81;4919261;28;45328;-71
2024/03/31 04:03:22;;;;;;;;;1.00;1.00;;;;;22.30;39.45;99145.97;4919118;28;45383;-71
2024/03/31 04:05:54;;;;;;;;;1.00;1.00;;;;;22.31;39.84;99144.09;4918482;28;47427;-71
2024/03/31 04:08:20;;;;;;;;;1.33;1.00;;;;;22.31;39.29;99144.09;4919066;28;45377;-71
2024/03/31 04:10:46;;;;;;;;;1.33;1.33;;;;;22.28;39.33;99140.06;4919038;28;45382;-71
2024/03/31 04:13:11;;;;;;;;;1.00;1.00;;;;;22.24;40.00;99136.25;4918929;28;45271;-72
2024/03/31 04:15:37;;;;;;;;;1.67;1.67;;;;;22.29;39.88;99139.84;4918656;28;46003;-71
2024/03/31 04:18:02;;;;;;;;;1.33;1.33;;;;;22.22;39.50;99125.88;4918835;28;45371;-71
2024/03/31 04:20:27;;;;;;;;;1.00;1.00;;;;;22.23;39.67;99130.13;4918553;28;45430;-71
2024/03/31 04:22:53;;;;;;;;;1.00;1.00;;;;;22.29;39.38;99149.63;4918885;28;45212;-71
2024/03/31 04:25:18;;;;;;;;;1.00;1.00;;;;;22.29;39.33;99136.38;4918626;28;46269;-70
2024/03/31 04:27:43;;;;;;;;;1.00;1.00;;;;;22.28;39.71;99129.47;4918793;28;45258;-71
2024/03/31 04:30:09;;;;;;;;;1.67;1.67;;;;;22.28;39.62;99132.09;4918957;28;45328;-71
2024/03/31 04:32:34;;;;;;;;;1.00;1.00;;;;;22.28;39.43;99134.75;4918644;28;45736;-71
2024/03/31 04:35:00;;;;;;;;;1.00;1.00;;;;;22.27;39.22;99136.63;4918293;28;46348;-71
2024/03/31 04:37:25;;;;;;;;;1.00;1.00;;;;;22.28;39.21;99134.75;4918520;28;45267;-70
2024/03/31 04:39:51;;;;;;;;;2.00;1.00;;;;;22.27;39.03;99136.63;4918599;28;45293;-70
2024/03/31 04:42:16;;;;;;;;;2.00;1.67;;;;;22.21;39.74;99120.78;4918699;28;45360;-71
2024/03/31 04:44:41;;;;;;;;;1.00;1.00;;;;;22.27;39.67;99122.56;4918526;28;45319;-70
2024/03/31 04:47:07;;;;;;;;;1.00;1.00;;;;;22.26;39.69;99129.69;4918544;28;45292;-71
2024/03/31 04:49:32;;;;;;;;;1.00;1.00;;;;;22.26;39.47;99126.22;4918288;28;45392;-71
2024/03/31 04:51:57;;;;;;;;;1.00;1.00;;;;;22.25;39.68;99125.41;4918542;28;45394;-71
2024/03/31 04:54:24;;;;;;;;;1.00;1.00;;;;;22.25;39.09;99125.41;4918262;28;46139;-71
2024/03/31 04:56:49;;;;;;;;;1.67;1.67;;;;;22.19;39.27;99107.78;4918369;28;45460;-71
2024/03/31 04:59:15;;;;;;;;;1.33;0.67;;;;;22.25;39.45;99114.81;4918412;28;45326;-71
2024/03/31 05:01:40;;;;;;;;;1.33;1.33;;;;;22.25;39.68;99116.69;4918426;28;45298;-71
2024/03/31 05:04:05;;;;;;;;;3.00;2.00;;;;;22.25;39.78;99119.34;4917865;28;46193;-71
2024/03/31 05:06:31;;;;;;;;;4.00;2.00;;;;;22.15;39.16;99096.81;4918317;28;45426;-71
2024/03/31 05:08:56;;;;;;;;;0.67;0.67;;;;;22.26;39.72;99120.94;4918387;28;45382;-71
2024/03/31 05:11:21;;;;;;;;;1.00;1.00;;;;;22.18;39.63;99103.50;4921384;28;45532;-71
2024/03/31 05:13:47;;;;;;;;;0.67;0.67;;;;;22.23;39.25;99111.59;4921543;28;45422;-71
2024/03/31 05:16:12;;;;;;;;;2.00;1.00;;;;;22.17;39.16;99099.25;4921364;28;45429;-70
2024/03/31 05:18:38;;;;;;;;;1.00;1.00;;;;;22.24;39.71;99109.75;4921291;28;45495;-71
2024/03/31 05:21:05;;;;;;;;;1.00;1.00;;;;;22.23;39.06;99108.13;4921382;28;45424;-71
2024/03/31 05:23:31;;;;;;;;;0.67;0.33;;;;;22.23;39.55;99108.94;4921442;28;46617;-70
2024/03/31 05:25:57;;;;;;;;;1.33;1.33;;;;;22.15;39.71;99078.28;4921291;28;45241;-71
2024/03/31 05:28:23;;;;;;;;;2.00;2.00;;;;;22.23;39.50;99092.22;4921435;28;45320;-71
2024/03/31 05:30:49;;;;;;;;;1.00;1.00;;;;;22.23;39.49;99102.84;4921393;28;45464;-71
2024/03/31 05:33:15;;;;;;;;;1.00;1.00;;;;;22.22;39.52;99094.09;4920804;28;45410;-71
2024/03/31 05:35:41;;;;;;;;;0.67;0.67;;;;;22.15;39.72;99090.69;4921356;28;45376;-71
2024/03/31 05:38:08;;;;;;;;;1.00;1.00;;;;;22.22;39.22;99088.81;4935965;28;45370;-71
2024/03/31 05:40:45;;;;;;;;;0.00;0.00;;;;;22.22;39.62;99094.09;4921232;28;45535;-71
2024/03/31 05:43:11;;;;;;;;;1.33;0.67;;;;;22.18;39.53;99085.78;4921037;28;46325;-71
2024/03/31 05:45:39;;;;;;;;;0.33;0.33;;;;;22.21;39.44;99091.66;4921012;28;45478;-71
2024/03/31 05:48:06;;;;;;;;;2.00;2.00;;;;;22.21;39.11;99092.47;4920832;28;45407;-71
2024/03/31 05:50:31;;;;;;;;;0.00;0.00;;;;;22.21;39.59;99096.94;4920999;28;45349;-70
2024/03/31 05:52:56;;;;;;;;;3.00;0.67;;;;;22.18;39.11;99101.66;4920733;28;46541;-71
2024/03/31 05:55:22;;;;;;;;;2.00;1.00;;;;;22.21;39.06;99091.66;4920748;28;45394;-71
2024/03/31 05:57:47;;;;;;;;;1.00;1.00;;;;;22.20;39.46;99093.50;4921070;28;45244;-71
2024/03/31 06:00:13;;;;;;;;;1.00;1.00;;;;;22.20;39.03;99090.84;4921044;28;45325;-71
2024/03/31 06:02:38;;;;;;;;;1.00;1.00;;;;;22.18;39.49;99093.72;4920621;28;47753;-71
2024/03/31 06:05:05;;;;;;;;;1.67;1.33;;;;;22.20;39.45;99100.66;4921004;28;45385;-71
2024/03/31 06:07:31;;;;;;;;;0.67;0.67;;;;;22.20;39.06;99103.31;4921049;28;45308;-71
2024/03/31 06:09:57;;;;;;;;;1.67;1.67;;;;;22.20;39.08;99108.59;4920802;28;45466;-71
2024/03/31 06:12:22;;;;;;;;;1.67;1.67;;;;;22.20;39.04;99100.66;4920528;28;45281;-71
2024/03/31 06:14:48;;;;;;;;;1.00;1.00;;;;;22.18;38.92;99104.31;4920330;28;45344;-71
2024/03/31 06:17:13;;;;;;;;;1.00;1.00;;;;;22.15;38.86;99094.16;4920677;28;45300;-71
2024/03/31 06:19:38;;;;;;;;;0.33;0.33;;;;;22.13;39.37;99087.47;4920778;28;45415;-71
2024/03/31 06:22:04;;;;;;;;;0.67;0.67;;;;;22.21;38.83;99100.41;4919103;28;45368;-71
2024/03/31 06:24:29;;;;;;;;;0.00;0.00;;;;;22.22;39.21;99103.88;4920678;28;45383;-71
2024/03/31 06:26:54;;;;;;;;;1.00;1.00;;;;;22.22;39.19;99101.22;4920590;28;45335;-71
2024/03/31 06:29:20;;;;;;;;;1.67;1.67;;;;;22.22;38.95;99103.88;4920288;28;45369;-71
2024/03/31 06:31:45;;;;;;;;;1.33;1.00;;;;;22.22;38.97;99104.69;4920383;28;46301;-71
2024/03/31 06:34:10;;;;;;;;;1.00;0.67;;;;;22.21;38.68;99095.13;4920467;28;45410;-71
2024/03/31 06:36:36;;;;;;;;;1.67;1.67;;;;;22.22;39.30;99095.94;4920553;28;45359;-71
2024/03/31 06:39:01;;;;;;;;;2.00;2.00;;;;;22.21;39.26;99105.72;4920292;28;45412;-71
2024/03/31 06:41:26;;;;;;;;;2.00;0.67;;;;;22.22;39.04;99098.59;4920244;28;45467;-71
2024/03/31 06:43:52;;;;;;;;;0.33;0.33;;;;;22.23;38.80;99094.88;4919981;28;45382;-71
2024/03/31 06:46:17;;;;;;;;;1.00;1.00;;;;;22.22;38.73;99099.41;4920471;28;45407;-71
2024/03/31 06:48:42;;;;;;;;;1.00;1.00;;;;;22.22;39.14;99107.34;4920341;28;45392;-71
2024/03/31 06:51:07;;;;;;;;;1.00;1.00;;;;;22.23;38.86;99111.59;4919929;28;46144;-71
2024/03/31 06:53:33;;;;;;;;;2.00;1.00;;;;;22.21;39.37;99102.25;4920217;28;45331;-71
2024/03/31 06:55:58;;;;;;;;;0.00;0.00;;;;;22.23;39.44;99108.13;4920075;28;45372;-71
2024/03/31 06:58:23;;;;;;;;;0.67;0.67;;;;;22.23;38.89;99094.88;4919874;28;45355;-71
2024/03/31 07:00:49;;;;;;;;;1.67;0.67;;;;;22.23;38.94;99106.28;4920032;28;45353;-71
2024/03/31 07:03:14;;;;;;;;;1.00;0.33;;;;;22.20;39.34;99104.09;4919940;28;45342;-71
2024/03/31 07:05:39;;;;;;;;;1.00;1.00;;;;;22.24;39.26;99110.56;4920184;28;45334;-71
2024/03/31 07:08:05;;;;;;;;;1.00;1.00;;;;;22.25;38.89;99103.44;4920118;28;45379;-71
2024/03/31 07:10:30;;;;;;;;;1.00;1.00;;;;;22.25;38.83;99103.44;4919795;28;45445;-70
2024/03/31 07:12:56;;;;;;;;;0.67;0.33;;;;;22.25;39.30;99106.09;4919557;28;45339;-71
2024/03/31 07:15:21;;;;;;;;;1.33;1.00;;;;;22.25;39.01;99106.09;4919807;28;45481;-70
2024/03/31 07:17:48;;;;;;;;;0.67;0.67;;;;;22.24;38.78;99105.28;4919825;28;45352;-71
2024/03/31 07:20:13;;;;;;;;;1.00;1.00;;;;;22.22;38.76;99096.75;4919504;28;47402;-71
2024/03/31 07:22:39;;;;;;;;;1.67;1.00;;;;;22.24;39.30;99105.28;4919516;28;45849;-70
2024/03/31 07:25:05;;;;;;;;;1.00;1.00;;;;;22.24;38.82;99107.91;4919782;28;45359;-71
2024/03/31 07:27:30;;;;;;;;;3.00;1.00;;;;;22.24;39.02;99094.69;4919313;28;45530;-70
2024/03/31 07:29:55;;;;;;;;;1.67;1.00;;;;;22.16;39.21;99079.09;4919514;28;45906;-70
2024/03/31 07:32:21;;;;;;;;;0.67;0.67;;;;;21.92;39.33;99033.97;4919069;28;45359;-71
2024/03/31 07:34:46;;;;;;;;;0.67;0.67;;;;;22.25;38.69;99082.25;4919717;28;45406;-71
2024/03/31 07:37:12;;;;;;;;;1.67;0.33;;;;;22.25;38.78;99074.31;4919577;28;45237;-71
2024/03/31 07:39:38;;;;;;;;;1.00;1.00;;;;;22.25;39.19;99066.34;4919262;28;46171;-71
2024/03/31 07:42:03;;;;;;;;;1.00;1.00;;;;;22.21;38.83;99071.28;4933861;28;45770;-70
2024/03/31 07:44:29;;;;;;;;;2.00;1.67;;;;;22.18;39.07;99058.47;4919408;28;45364;-71
2024/03/31 07:46:54;;;;;;;;;2.00;2.00;;;;;22.26;38.75;99071.41;4919493;28;45416;-71
2024/03/31 07:49:19;;;;;;;;;0.00;0.00;;;;;22.27;39.26;99064.28;4919262;28;45344;-70
2024/03/31 07:51:45;;;;;;;;;2.67;0.67;;;;;22.26;39.01;99060.81;4919270;28;45385;-71
2024/03/31 07:54:10;;;;;;;;;0.67;0.67;;;;;22.26;39.24;99057.34;4919417;28;45294;-71
2024/03/31 07:56:35;;;;;;;;;1.00;1.00;;;;;22.26;39.23;99055.53;4918800;28;45309;-71
2024/03/31 07:59:00;;;;;;;;;2.00;0.33;;;;;22.26;39.01;99060.81;4919205;28;45248;-71
2024/03/31 08:01:26;;;;;;;;;0.00;0.00;;;;;22.24;39.18;99054.13;4919166;28;45296;-71
2024/03/31 08:03:51;;;;;;;;;1.00;1.00;;;;;22.16;39.27;99037.53;4933920;28;45377;-71
2024/03/31 08:06:16;;;;;;;;;2.67;1.33;;;;;22.26;39.03;99047.56;4919277;28;45249;-71
2024/03/31 08:08:42;;;;;;;;;1.00;1.00;;;;;22.27;39.39;99054.50;4918895;28;45368;-70
2024/03/31 08:11:07;;;;;;;;;3.00;1.00;;;;;22.26;38.88;99050.22;4918717;28;45407;-71
2024/03/31 08:13:34;;;;;;;;;1.00;1.00;;;;;22.27;38.95;99041.25;4919171;28;45286;-71
2024/03/31 08:16:00;;;;;;;;;0.67;0.67;;;;;22.27;39.33;99030.66;4918839;28;45561;-70
2024/03/31 08:18:26;;;;;;;;;1.00;1.00;;;;;22.29;38.93;99027.75;4918652;28;46404;-71
2024/03/31 08:20:51;;;;;;;;;1.00;1.00;;;;;22.30;39.29;99026.75;4918599;28;45411;-71
2024/03/31 08:23:16;;;;;;;;;3.33;1.00;;;;;22.30;39.37;99026.75;4918916;28;45403;-71
2024/03/31 08:25:42;;;;;;;;;4.00;1.00;;;;;22.31;38.92;99023.03;4918498;28;45386;-71
2024/03/31 08:28:07;;;;;;;;;3.33;1.00;;;;;22.31;39.55;99020.41;4917433;28;47008;-71
2024/03/31 08:30:33;;;;;;;;;1.00;1.00;;;;;22.33;38.90;99020.19;4918823;28;45336;-71
2024/03/31 08:32:58;;;;;;;;;0.00;0.00;;;;;22.31;38.99;99014.28;4918911;28;45316;-71
2024/03/31 08:35:24;;;;;;;;;1.00;1.00;;;;;22.35;38.98;99010.94;4918750;28;45373;-71
2024/03/31 08:37:49;;;;;;;;;2.33;0.67;;;;;22.35;38.99;99008.28;4918485;28;46275;-71
2024/03/31 08:40:15;;;;;;;;;1.33;0.00;;;;;22.37;39.26;99014.19;4918253;28;45379;-71
2024/03/31 08:42:48;;;;;;;;;1.00;1.00;;;;;22.38;39.16;99015.78;4918561;28;45339;-71
2024/03/31 08:45:15;;;;;;;;;1.00;1.00;;;;;22.39;39.09;99020.06;4917801;28;45589;-71
2024/03/31 08:47:44;;;;;;;;;0.67;0.00;;;;;22.38;39.45;99017.63;4918331;28;47030;-71
2024/03/31 08:50:10;;;;;;;;;0.67;0.67;;;;;22.40;39.60;99011.06;4918312;28;45468;-71
2024/03/31 08:52:36;;;;;;;;;3.00;2.00;;;;;22.40;39.19;99010.28;4918374;28;45300;-71
2024/03/31 08:55:03;;;;;;;;;1.00;1.00;;;;;22.44;39.58;99016.72;4918026;28;45539;-71
2024/03/31 08:57:29;;;;;;;;;0.67;0.67;;;;;22.45;38.93;99010.41;4918362;28;46969;-71
2024/03/31 08:59:55;;;;;;;;;0.00;0.00;;;;;22.46;38.97;99003.25;4918152;28;45446;-71
2024/03/31 09:02:24;;;;;;;;;2.00;2.00;;;;;22.43;39.44;99001.84;4918218;28;45435;-71
2024/03/31 09:04:51;;;;;;;;;1.00;1.00;;;;;22.48;38.97;98998.56;4918309;28;45519;-70
2024/03/31 09:07:16;;;;;;;;;0.33;0.00;;;;;22.39;39.01;98988.28;4918115;28;46954;-71
2024/03/31 09:09:42;;;;;;;;;0.67;0.67;;;;;22.50;39.38;99002.59;4917784;28;45351;-71
2024/03/31 09:12:11;;;;;;;;;2.00;1.00;;;;;22.51;39.09;98998.06;4918358;28;45304;-71
2024/03/31 09:14:37;;;;;;;;;1.00;1.00;;;;;22.53;39.25;99003.97;4918390;28;45357;-71
2024/03/31 09:17:06;;;;;;;;;0.00;0.00;;;;;22.54;39.30;98996.81;4917632;28;46240;-70
2024/03/31 09:19:31;;;;;;;;;2.33;1.00;;;;;22.55;38.92;98995.78;4918149;28;45459;-71
2024/03/31 09:21:57;;;;;;;;;0.67;0.67;;;;;22.55;39.55;99003.72;4917981;28;45391;-70
2024/03/31 09:24:22;;;;;;;;;1.67;1.00;;;;;22.56;39.35;99000.84;4917819;28;45434;-71
2024/03/31 09:26:49;;;;;;;;;1.33;1.00;;;;;22.56;39.07;99008.78;4917978;28;45441;-71
2024/03/31 09:29:15;;;;;;;;;1.67;1.00;;;;;22.58;39.08;99024.47;4918042;28;45546;-70
2024/03/31 09:31:40;;;;;;;;;3.00;1.00;;;;;22.58;39.31;99016.53;4932655;28;45283;-70
2024/03/31 09:34:06;;;;;;;;;1.67;1.67;;;;;22.60;38.97;99030.34;4918127;28;45465;-71
2024/03/31 09:36:36;;;;;;;;;1.67;1.67;;;;;22.61;38.93;99018.72;4917701;28;46711;-70
2024/03/31 09:39:03;;;;;;;;;0.67;0.67;;;;;22.61;39.09;99016.88;4917329;28;45446;-70
2024/03/31 09:41:28;;;;;;;;;3.00;1.00;;;;;22.62;39.04;99002.59;4917843;28;45320;-71
2024/03/31 09:43:54;;;;;;;;;0.67;0.67;;;;;22.63;38.91;99025.41;4917819;28;45371;-70
2024/03/31 09:46:19;;;;;;;;;0.00;0.00;;;;;22.62;39.39;98999.94;4917783;28;47432;-71
2024/03/31 09:48:50;;;;;;;;;0.00;0.00;;;;;22.63;38.93;98995.44;4917856;28;45320;-70
2024/03/31 09:51:24;;;;;;;;;0.33;0.33;;;;;22.65;38.85;98995.22;4917778;28;45363;-70
2024/03/31 09:54:02;;;;;;;;;0.33;0.33;;;;;22.65;39.56;98990.72;4917402;28;45460;-71
2024/03/31 09:56:50;;;;;;;;;0.00;0.00;;;;;22.66;39.56;98988.88;4919136;28;46420;-71
2024/03/31 09:59:21;;;;;;;;;1.00;1.00;;;;;22.67;39.00;98998.44;4920771;28;45479;-70
2024/03/31 10:01:47;;;;;;;;;1.00;0.67;;;;;22.67;38.98;98990.47;4920991;28;45406;-70
2024/03/31 10:04:17;;;;;;;;;1.00;1.00;;;;;22.67;39.15;99001.91;4920877;28;45331;-70
2024/03/31 10:06:44;;;;;;;;;1.00;1.00;;;;;22.67;39.11;98985.19;4920812;28;47519;-71
2024/03/31 10:09:09;;;;;;;;;0.33;0.33;;;;;22.65;39.03;98976.66;4920598;28;45379;-71
2024/03/31 10:11:35;;;;;;;;;0.00;0.00;;;;;22.68;39.55;98971.72;4920716;28;45296;-71
2024/03/31 10:14:01;;;;;;;;;0.67;0.67;;;;;22.64;38.91;98954.63;4920855;28;45430;-70
2024/03/31 10:16:28;;;;;;;;;0.00;0.00;;;;;22.70;39.13;98974.16;4920394;28;46417;-70
2024/03/31 10:18:56;;;;;;;;;0.67;0.67;;;;;22.70;39.52;98960.91;4920505;28;45469;-71
2024/03/31 10:21:23;;;;;;;;;1.00;1.00;;;;;22.69;38.86;98970.66;4920097;28;45392;-69
2024/03/31 10:23:50;;;;;;;;;1.67;0.67;;;;;22.70;39.54;98967.00;4920564;28;45407;-70
2024/03/31 10:26:16;;;;;;;;;2.33;1.00;;;;;22.70;39.47;98960.91;4920410;28;46167;-71
2024/03/31 10:28:42;;;;;;;;;1.67;0.67;;;;;22.70;38.93;98961.72;4920371;28;45419;-71
2024/03/31 10:31:08;;;;;;;;;1.33;1.00;;;;;22.70;39.49;98967.00;4920331;28;45307;-70
2024/03/31 10:33:34;;;;;;;;;0.67;0.67;;;;;22.70;39.30;98948.47;4920429;28;45530;-70
2024/03/31 10:36:01;;;;;;;;;0.33;0.33;;;;;22.69;39.57;98960.06;4920069;28;45606;-71
2024/03/31 10:38:27;;;;;;;;;1.33;0.33;;;;;22.70;39.33;98951.09;4920346;28;45281;-71
2024/03/31 10:40:52;;;;;;;;;0.33;0.33;;;;;22.68;38.93;98950.50;4920374;28;45309;-70
2024/03/31 10:43:19;;;;;;;;;1.00;1.00;;;;;22.70;39.39;98955.59;4920437;28;45284;-70
2024/03/31 10:45:45;;;;;;;;;0.33;0.00;;;;;22.69;38.98;98951.31;4919971;28;46210;-70
2024/03/31 10:48:11;;;;;;;;;0.33;0.33;;;;;22.69;39.02;98956.63;4919954;28;45368;-71
2024/03/31 10:50:42;;;;;;;;;2.33;1.67;;;;;22.70;39.59;98955.59;4919794;28;45369;-71
2024/03/31 10:53:08;;;;;;;;;1.00;1.00;;;;;22.70;39.53;98958.25;4920361;28;45229;-71
2024/03/31 10:55:34;;;;;;;;;2.67;1.00;;;;;22.66;39.09;98944.63;4919863;28;46150;-70
2024/03/31 10:58:00;;;;;;;;;1.00;0.67;;;;;22.70;39.06;98961.72;4919892;28;45359;-70
2024/03/31 11:00:27;;;;;;;;;1.00;1.00;;;;;22.70;39.39;98951.09;4919933;28;45300;-71
2024/03/31 11:02:53;;;;;;;;;2.00;2.00;;;;;22.69;39.55;98948.66;4934647;28;45382;-70
2024/03/31 11:05:22;;;;;;;;;1.00;1.00;;;;;22.70;39.58;98956.41;4919529;28;46099;-70
2024/03/31 11:07:50;;;;;;;;;1.00;1.00;;;;;22.71;39.20;98941.31;4919085;28;45276;-72
2024/03/31 11:10:17;;;;;;;;;0.33;0.33;;;;;22.72;39.46;98959.63;4920075;28;45411;-71
2024/03/31 11:12:44;;;;;;;;;1.00;1.00;;;;;22.74;39.43;98943.50;4919797;28;45630;-71
2024/03/31 11:15:10;;;;;;;;;1.00;1.00;;;;;22.76;39.86;98948.56;4916298;28;46203;-71
2024/03/31 11:17:36;;;;;;;;;2.00;1.00;;;;;22.78;39.83;98944.66;4917509;28;45414;-71
2024/03/31 11:20:04;;;;;;;;;0.00;0.00;;;;;22.79;39.46;98925.06;4918560;28;45382;-71
2024/03/31 11:22:30;;;;;;;;;0.33;0.33;;;;;22.73;39.78;98923.31;4917337;28;45464;-70
2024/03/31 11:24:57;;;;;;;;;0.67;0.67;;;;;22.76;39.95;98914.91;4917120;28;47176;-70
2024/03/31 11:27:23;;;;;;;;;1.00;1.00;;;;;22.87;39.60;98907.19;4916391;28;45544;-72